createdAt,value
2019-03-21T00:01:06.085Z,23.60
2019-03-21T00:06:18.471Z,27.15
2019-03-21T00:12:04.955Z,27.17
2019-03-21T00:17:18.566Z,24.50
2019-03-21T00:22:34.785Z,28.67
2019-03-21T00:27:44.649Z,24.60
2019-03-21T00:33:02.727Z,27.33
2019-03-21T00:38:17.238Z,25.17
2019-03-21T00:43:31.942Z,28.50
2019-03-21T00:48:51.679Z,27.27
2019-03-21T00:54:12.632Z,25.30
2019-03-21T00:59:31.764Z,25.57
2019-03-21T01:04:51.048Z,24.27
2019-03-21T01:10:08.785Z,22.17
2019-03-21T01:15:25.031Z,23.45
2019-03-21T01:20:45.031Z,23.97
2019-03-21T01:26:00.906Z,28.70
2019-03-21T01:31:19.192Z,28.43
2019-03-21T01:36:40.278Z,32.97
2019-03-21T01:42:02.189Z,30.27
2019-03-21T01:47:12.381Z,42.27
2019-03-21T01:52:25.482Z,41.08
2019-03-21T01:57:38.351Z,36.33
2019-03-21T02:02:57.895Z,31.33
2019-03-21T02:08:14.334Z,33.47
2019-03-21T02:13:30.994Z,38.00
2019-03-21T02:18:47.351Z,34.13
2019-03-21T02:24:01.351Z,29.47
2019-03-21T02:29:15.029Z,30.77
2019-03-21T02:34:33.149Z,40.40
2019-03-21T02:39:59.369Z,36.53
2019-03-21T02:45:13.444Z,30.63
2019-03-21T02:50:33.611Z,33.83
2019-03-21T02:55:45.894Z,34.33
2019-03-21T03:00:58.442Z,33.77
2019-03-21T03:06:08.939Z,39.83
2019-03-21T03:11:20.269Z,33.15
2019-03-21T03:16:33.004Z,33.37
2019-03-21T03:21:41.363Z,35.87
2019-03-21T03:26:53.098Z,55.93
2019-03-21T03:32:13.957Z,36.60
2019-03-21T03:37:24.786Z,37.67
2019-03-21T03:42:39.133Z,35.27
2019-03-21T03:47:49.065Z,38.90
2019-03-21T03:53:02.696Z,36.97
2019-03-21T03:58:20.750Z,42.60
2019-03-21T04:03:34.407Z,34.20
2019-03-21T04:08:54.474Z,36.13
2019-03-21T04:14:09.423Z,34.50
2019-03-21T04:19:23.641Z,38.10
2019-03-21T04:24:39.355Z,47.80
2019-03-21T04:29:54.199Z,37.47
2019-03-21T04:35:14.215Z,38.23
2019-03-21T04:40:29.522Z,36.87
2019-03-21T04:45:44.981Z,41.10
2019-03-21T04:51:01.278Z,39.27
2019-03-21T04:56:24.776Z,43.07
2019-03-21T05:01:43.937Z,45.85
2019-03-21T05:07:00.164Z,48.67
2019-03-21T05:12:19.118Z,47.67
2019-03-21T05:17:33.542Z,66.33
2019-03-21T05:22:48.743Z,64.47
2019-03-21T05:28:02.455Z,56.97
2019-03-21T05:33:21.035Z,65.03
2019-03-21T05:38:34.729Z,61.07
2019-03-21T05:44:06.853Z,59.27
2019-03-21T05:49:24.850Z,56.23
2019-03-21T05:54:39.308Z,49.77
2019-03-21T06:00:01.833Z,54.20
2019-03-21T06:05:17.707Z,48.17
2019-03-21T06:10:31.305Z,46.65
2019-03-21T06:15:42.540Z,51.17
2019-03-21T06:21:14.051Z,124.77
2019-03-21T06:27:13.749Z,240.50
2019-03-21T06:32:24.493Z,376.40
2019-03-21T06:37:46.923Z,176.37
2019-03-21T06:42:59.403Z,202.33
2019-03-21T06:48:15.204Z,200.27
2019-03-21T06:53:36.137Z,217.22
2019-03-21T06:58:49.674Z,114.80
2019-03-21T07:04:06.947Z,231.30
2019-03-21T07:09:16.583Z,114.73
2019-03-21T07:14:32.905Z,313.85
2019-03-21T07:19:45.026Z,266.23
2019-03-21T07:25:04.659Z,156.43
2019-03-21T07:30:21.423Z,183.47
2019-03-21T07:35:44.780Z,145.63
2019-03-21T07:41:04.521Z,161.53
2019-03-21T07:46:21.774Z,126.57
2019-03-21T07:51:40.714Z,87.03
2019-03-21T07:56:53.097Z,92.87
2019-03-21T08:02:00.914Z,63.67
2019-03-21T08:07:16.251Z,69.57
2019-03-21T08:12:32.416Z,76.42
2019-03-21T08:17:45.541Z,75.93
2019-03-21T08:22:56.398Z,73.20
2019-03-21T08:28:08.166Z,65.20
2019-03-21T08:33:25.317Z,66.15
2019-03-21T08:38:41.526Z,53.90
2019-03-21T08:43:56.745Z,49.27
2019-03-21T08:49:11.143Z,52.20
2019-03-21T08:54:24.206Z,51.50
2019-03-21T08:59:39.719Z,46.30
2019-03-21T09:05:01.294Z,49.43
2019-03-21T09:10:14.248Z,47.90
2019-03-21T09:15:29.418Z,44.13
2019-03-21T09:20:49.191Z,51.90
2019-03-21T09:25:59.167Z,51.97
2019-03-21T09:31:19.418Z,55.40
2019-03-21T09:36:52.617Z,55.80
2019-03-21T09:42:06.696Z,64.87
2019-03-21T09:47:21.352Z,57.87
2019-03-21T09:52:39.625Z,62.23
2019-03-21T09:57:58.634Z,56.03
2019-03-21T10:03:12.041Z,68.10
2019-03-21T10:08:26.183Z,78.90
2019-03-21T10:13:40.096Z,80.17
2019-03-21T10:18:59.942Z,84.05
2019-03-21T10:24:18.255Z,71.97
2019-03-21T10:29:33.577Z,68.87
2019-03-21T10:34:44.406Z,73.02
2019-03-21T10:39:57.137Z,72.40
2019-03-21T10:45:10.790Z,72.30
2019-03-21T10:50:32.102Z,51.68
2019-03-21T10:55:45.606Z,47.15
2019-03-21T11:01:00.875Z,50.05
2019-03-21T11:06:10.377Z,50.70
2019-03-21T11:11:25.065Z,45.67
2019-03-21T11:16:41.385Z,42.20
2019-03-21T11:21:52.980Z,52.00
2019-03-21T11:27:09.221Z,46.65
2019-03-21T11:32:17.116Z,45.03
2019-03-21T11:37:35.206Z,44.00
2019-03-21T11:42:54.988Z,45.78
2019-03-21T11:48:14.309Z,32.13
2019-03-21T11:53:34.123Z,28.52
2019-03-21T11:58:49.465Z,31.63
2019-03-21T12:04:05.196Z,31.80
2019-03-21T12:09:26.693Z,31.34
2019-03-21T12:14:36.823Z,30.20
2019-03-21T12:19:54.854Z,30.80
2019-03-21T12:25:11.204Z,28.40
2019-03-21T12:30:25.181Z,26.77
2019-03-21T12:35:41.448Z,28.55
2019-03-21T12:41:01.386Z,29.80
2019-03-21T12:46:13.554Z,27.27
2019-03-21T12:51:28.040Z,28.80
2019-03-21T12:56:45.161Z,28.00
2019-03-21T13:02:04.935Z,28.98
2019-03-21T13:07:23.829Z,27.45
2019-03-21T13:12:38.721Z,29.70
2019-03-21T13:18:00.382Z,29.70
2019-03-21T13:23:13.000Z,28.87
2019-03-21T13:28:32.138Z,30.40
2019-03-21T13:33:42.506Z,30.45
2019-03-21T13:38:58.150Z,33.15
2019-03-21T13:44:17.893Z,32.60
2019-03-21T13:49:41.414Z,35.70
2019-03-21T13:55:00.395Z,33.55
2019-03-21T14:00:12.257Z,32.88
2019-03-21T14:05:28.838Z,33.30
2019-03-21T14:10:41.042Z,33.63
2019-03-21T14:16:06.089Z,35.73
2019-03-21T14:21:24.168Z,37.03
2019-03-21T14:26:42.094Z,35.20
2019-03-21T14:31:55.559Z,35.70
2019-03-21T14:37:03.417Z,36.42
2019-03-21T14:42:23.414Z,34.15
2019-03-21T14:47:41.666Z,35.35
2019-03-21T14:53:04.150Z,35.50
2019-03-21T14:58:23.878Z,34.98
2019-03-21T15:03:34.044Z,29.92
2019-03-21T15:08:50.245Z,31.68
2019-03-21T15:14:02.958Z,30.37
2019-03-21T15:19:21.096Z,31.63
2019-03-21T15:24:37.510Z,31.20
2019-03-21T15:29:51.117Z,28.92
2019-03-21T15:35:05.510Z,26.97
2019-03-21T15:40:17.681Z,28.06
2019-03-21T15:45:32.972Z,27.22
2019-03-21T15:50:47.499Z,25.23
2019-03-21T15:56:01.963Z,25.50
2019-03-21T16:01:14.686Z,25.48
2019-03-21T16:06:30.978Z,25.57
2019-03-21T16:11:47.366Z,68.62
2019-03-21T16:17:01.813Z,28.75
2019-03-21T16:22:19.089Z,22.95
2019-03-21T16:27:34.419Z,22.80
2019-03-21T16:32:42.786Z,23.95
2019-03-21T16:37:54.950Z,24.82
2019-03-21T16:43:07.368Z,21.67
2019-03-21T16:48:29.325Z,25.75
2019-03-21T16:53:44.020Z,27.13
2019-03-21T16:58:58.771Z,29.20
2019-03-21T17:04:10.280Z,27.90
2019-03-21T17:09:26.475Z,26.30
2019-03-21T17:14:39.083Z,27.60
2019-03-21T17:19:55.302Z,28.17
2019-03-21T17:25:10.627Z,32.73
2019-03-21T17:30:27.110Z,31.20
2019-03-21T17:35:44.233Z,34.07
2019-03-21T17:41:02.791Z,30.97
2019-03-21T17:46:21.754Z,32.00
2019-03-21T17:51:36.965Z,32.03
2019-03-21T17:56:56.778Z,29.60
2019-03-21T18:02:06.600Z,33.47
2019-03-21T18:07:19.177Z,35.57
2019-03-21T18:12:34.531Z,35.93
2019-03-21T18:17:47.101Z,35.80
2019-03-21T18:22:58.320Z,35.30
2019-03-21T18:28:09.022Z,34.70
2019-03-21T18:33:19.359Z,38.08
2019-03-21T18:38:40.743Z,40.97
2019-03-21T18:43:56.693Z,37.43
2019-03-21T18:49:13.969Z,38.23
2019-03-21T18:54:23.919Z,42.17
2019-03-21T18:59:34.840Z,43.70
2019-03-21T19:04:44.357Z,40.20
2019-03-21T19:09:55.219Z,40.73
2019-03-21T19:15:04.934Z,44.07
2019-03-21T19:20:15.638Z,45.10
2019-03-21T19:27:04.774Z,41.10
2019-03-21T19:32:16.035Z,39.50
2019-03-21T19:37:34.030Z,40.50
2019-03-21T19:42:49.258Z,47.57
2019-03-21T19:48:05.513Z,47.03
2019-03-21T19:53:18.120Z,48.95
2019-03-21T19:58:35.763Z,49.53
2019-03-21T20:03:57.317Z,51.27
2019-03-21T20:09:12.696Z,53.10
2019-03-21T20:14:23.717Z,51.97
2019-03-21T20:19:40.838Z,52.30
2019-03-21T20:24:52.529Z,51.47
2019-03-21T20:30:07.078Z,50.07
2019-03-21T20:35:16.286Z,49.53
2019-03-21T20:40:27.668Z,49.23
2019-03-21T20:45:42.034Z,51.67
2019-03-21T20:50:59.048Z,49.07
2019-03-21T20:56:14.310Z,53.07
2019-03-21T21:01:27.879Z,53.08
2019-03-21T21:06:46.053Z,56.90
2019-03-21T21:11:58.700Z,51.17
2019-03-21T21:17:17.770Z,56.30
2019-03-21T21:22:38.485Z,55.87
2019-03-21T21:27:52.103Z,52.93
2019-03-21T21:33:03.840Z,50.40
2019-03-21T21:38:13.342Z,59.47
2019-03-21T21:43:27.814Z,60.37
2019-03-21T21:48:44.276Z,53.67
2019-03-21T21:53:59.597Z,55.53
2019-03-21T21:59:14.027Z,65.53
2019-03-21T22:04:27.690Z,72.17
2019-03-21T22:09:48.455Z,72.00
2019-03-21T22:15:02.003Z,69.97
2019-03-21T22:20:10.430Z,75.03
2019-03-21T22:25:25.709Z,87.27
2019-03-21T22:30:39.419Z,101.87
2019-03-21T22:35:57.526Z,103.37
2019-03-21T22:41:13.517Z,122.67
2019-03-21T22:46:33.320Z,115.50
2019-03-21T22:51:50.388Z,109.67
2019-03-21T22:57:07.410Z,121.87
2019-03-21T23:02:19.190Z,132.45
2019-03-21T23:07:37.191Z,133.50
2019-03-21T23:12:47.628Z,116.73
2019-03-21T23:18:03.913Z,136.03
2019-03-21T23:23:16.512Z,129.00
2019-03-21T23:28:33.798Z,132.22
2019-03-21T23:33:59.603Z,120.23
2019-03-21T23:39:10.374Z,131.13
2019-03-21T23:44:23.488Z,129.57
2019-03-21T23:49:35.676Z,121.80
2019-03-21T23:54:58.246Z,101.07
